createdAt,value
2023-05-12T00:00:56.610Z,0.00
2023-05-12T00:01:56.773Z,0.00
2023-05-12T00:02:56.603Z,0.00
2023-05-12T00:03:56.914Z,0.00
2023-05-12T00:04:56.634Z,0.00
2023-05-12T00:05:56.776Z,0.00
2023-05-12T00:06:56.483Z,0.00
2023-05-12T00:07:56.471Z,0.00
2023-05-12T00:08:56.461Z,0.00
2023-05-12T00:09:56.472Z,0.00
2023-05-12T00:10:56.441Z,0.00
2023-05-12T00:11:56.431Z,0.00
2023-05-12T00:12:56.421Z,0.00
2023-05-12T00:13:56.455Z,0.00
2023-05-12T00:14:56.424Z,0.00
2023-05-12T00:15:56.420Z,0.00
2023-05-12T00:16:56.520Z,0.00
2023-05-12T00:17:56.396Z,0.00
2023-05-12T00:18:56.430Z,0.00
2023-05-12T00:19:56.373Z,0.00
2023-05-12T00:20:56.342Z,0.00
2023-05-12T00:21:56.331Z,0.00
2023-05-12T00:22:56.316Z,0.00
2023-05-12T00:23:56.345Z,0.00
2023-05-12T00:24:56.351Z,0.00
2023-05-12T00:25:56.289Z,0.00
2023-05-12T00:26:56.280Z,0.00
2023-05-12T00:27:56.264Z,0.00
2023-05-12T00:28:56.298Z,0.00
2023-05-12T00:29:56.243Z,0.00
2023-05-12T00:30:56.241Z,0.00
2023-05-12T00:31:56.475Z,0.00
2023-05-12T00:32:56.270Z,0.00
2023-05-12T00:33:56.234Z,0.00
2023-05-12T00:34:56.208Z,0.00
2023-05-12T00:35:56.181Z,0.00
2023-05-12T00:36:56.184Z,0.00
2023-05-12T00:37:56.190Z,0.00
2023-05-12T00:38:56.159Z,0.00
2023-05-12T00:39:56.142Z,0.00
2023-05-12T00:40:56.145Z,0.00
2023-05-12T00:41:56.124Z,0.00
2023-05-12T00:42:56.149Z,0.00
2023-05-12T00:43:56.110Z,0.00
2023-05-12T00:44:56.118Z,0.00
2023-05-12T00:45:56.133Z,0.00
2023-05-12T00:46:56.120Z,0.00
2023-05-12T00:47:56.136Z,0.00
2023-05-12T00:48:56.052Z,0.00
2023-05-12T00:49:56.073Z,0.00
2023-05-12T00:50:56.051Z,0.00
2023-05-12T00:51:56.084Z,0.00
2023-05-12T00:52:56.023Z,0.00
2023-05-12T00:53:56.017Z,0.00
2023-05-12T00:54:56.004Z,0.00
2023-05-12T00:55:55.990Z,0.00
2023-05-12T00:56:55.996Z,0.00
2023-05-12T00:57:55.973Z,0.00
2023-05-12T00:58:55.986Z,0.00
2023-05-12T00:59:55.955Z,0.00
2023-05-12T01:00:55.996Z,0.00
2023-05-12T01:01:55.957Z,0.00
2023-05-12T01:02:55.973Z,0.00
2023-05-12T01:03:55.914Z,0.00
2023-05-12T01:04:55.912Z,0.00
2023-05-12T01:05:55.924Z,0.00
2023-05-12T01:06:55.885Z,0.00
2023-05-12T01:07:55.889Z,0.00
2023-05-12T01:08:55.852Z,0.00
2023-05-12T01:09:55.863Z,0.00
2023-05-12T01:10:55.872Z,0.00
2023-05-12T01:11:55.827Z,0.00
2023-05-12T01:12:55.820Z,0.00
2023-05-12T01:13:55.829Z,0.00
2023-05-12T01:14:55.844Z,0.00
2023-05-12T01:15:55.809Z,0.00
2023-05-12T01:16:55.804Z,0.00
2023-05-12T01:17:55.783Z,0.00
2023-05-12T01:18:55.795Z,0.00
2023-05-12T01:19:55.782Z,0.00
2023-05-12T01:20:55.730Z,0.00
2023-05-12T01:21:55.717Z,0.00
2023-05-12T01:22:55.733Z,0.00
2023-05-12T01:23:55.725Z,0.00
2023-05-12T01:24:55.717Z,0.00
2023-05-12T01:25:55.696Z,0.00
2023-05-12T01:26:55.770Z,0.00
2023-05-12T01:27:55.664Z,0.00
2023-05-12T01:28:55.670Z,0.00
2023-05-12T01:29:55.649Z,0.00
2023-05-12T01:30:55.685Z,0.00
2023-05-12T01:31:55.638Z,0.00
2023-05-12T01:32:55.682Z,0.00
2023-05-12T01:33:55.642Z,0.00
2023-05-12T01:34:55.582Z,0.00
2023-05-12T01:35:55.594Z,0.00
2023-05-12T01:36:55.572Z,0.00
2023-05-12T01:37:55.553Z,0.00
2023-05-12T01:38:55.577Z,0.00
2023-05-12T01:39:55.617Z,0.00
2023-05-12T01:40:55.537Z,0.00
2023-05-12T01:41:55.521Z,0.00
2023-05-12T01:42:55.518Z,0.00
2023-05-12T01:43:55.518Z,0.00
2023-05-12T01:44:55.484Z,0.00
2023-05-12T01:45:55.468Z,0.00
2023-05-12T01:46:55.494Z,0.00
2023-05-12T01:47:55.529Z,0.00
2023-05-12T01:48:55.444Z,0.00
2023-05-12T01:49:55.426Z,0.00
2023-05-12T01:50:55.437Z,0.00
2023-05-12T01:51:55.410Z,0.00
2023-05-12T01:52:55.414Z,0.00
2023-05-12T01:53:55.394Z,0.00
2023-05-12T01:54:55.372Z,0.00
2023-05-12T01:55:55.363Z,0.00
2023-05-12T01:56:55.409Z,0.00
2023-05-12T01:57:55.366Z,0.00
2023-05-12T01:58:55.400Z,0.00
2023-05-12T01:59:55.323Z,0.00
2023-05-12T02:00:55.303Z,0.00
2023-05-12T02:01:55.365Z,0.00
2023-05-12T02:02:55.355Z,0.00
2023-05-12T02:03:55.407Z,0.00
2023-05-12T02:04:55.274Z,0.00
2023-05-12T02:05:55.282Z,0.00
2023-05-12T02:06:55.270Z,0.00
2023-05-12T02:07:55.244Z,0.00
2023-05-12T02:08:55.223Z,0.00
2023-05-12T02:09:55.223Z,0.00
2023-05-12T02:11:09.550Z,0.00
2023-05-12T02:11:55.197Z,0.00
2023-05-12T02:12:55.186Z,0.00
2023-05-12T02:13:55.169Z,0.00
2023-05-12T02:14:55.164Z,0.00
2023-05-12T02:15:55.299Z,0.00
2023-05-12T02:16:55.147Z,0.00
2023-05-12T02:17:55.213Z,0.00
2023-05-12T02:18:55.138Z,0.00
2023-05-12T02:19:55.111Z,0.00
2023-05-12T02:20:55.126Z,0.00
2023-05-12T02:21:55.093Z,0.00
2023-05-12T02:22:55.083Z,0.00
2023-05-12T02:23:55.071Z,0.00
2023-05-12T02:24:55.089Z,0.00
2023-05-12T02:25:55.075Z,0.00
2023-05-12T02:26:55.041Z,0.00
2023-05-12T02:27:55.035Z,0.00
2023-05-12T02:28:55.022Z,0.00
2023-05-12T02:29:55.029Z,0.00
2023-05-12T02:30:55.004Z,0.00
2023-05-12T02:31:55.026Z,0.00
2023-05-12T02:32:54.993Z,0.00
2023-05-12T02:33:54.995Z,0.00
2023-05-12T02:34:54.993Z,0.00
2023-05-12T02:35:54.945Z,0.00
2023-05-12T02:36:54.945Z,0.00
2023-05-12T02:37:54.929Z,0.00
2023-05-12T02:38:54.943Z,0.00
2023-05-12T02:39:54.901Z,0.00
2023-05-12T02:40:54.901Z,0.00
2023-05-12T02:41:54.882Z,0.00
2023-05-12T02:42:54.878Z,0.00
2023-05-12T02:43:54.884Z,0.00
2023-05-12T02:44:54.854Z,0.00
2023-05-12T02:45:54.908Z,0.00
2023-05-12T02:46:54.843Z,0.00
2023-05-12T02:47:54.885Z,0.00
2023-05-12T02:48:54.838Z,0.00
2023-05-12T02:49:54.803Z,0.00
2023-05-12T02:50:54.797Z,0.00
2023-05-12T02:51:54.788Z,0.00
2023-05-12T02:52:54.794Z,0.00
2023-05-12T02:53:54.769Z,0.00
2023-05-12T02:54:54.756Z,0.00
2023-05-12T02:55:54.743Z,0.00
2023-05-12T02:56:54.745Z,0.00
2023-05-12T02:57:54.742Z,0.00
2023-05-12T02:58:54.722Z,0.00
2023-05-12T02:59:54.694Z,0.00
2023-05-12T03:01:06.724Z,0.00
2023-05-12T03:01:54.762Z,0.00
2023-05-12T03:02:54.786Z,0.00
2023-05-12T03:03:54.697Z,0.00
2023-05-12T03:04:54.649Z,0.00
2023-05-12T03:05:54.645Z,0.00
2023-05-12T03:06:54.608Z,0.00
2023-05-12T03:07:54.638Z,0.00
2023-05-12T03:08:54.614Z,0.00
2023-05-12T03:09:54.558Z,0.00
2023-05-12T03:10:54.547Z,0.00
2023-05-12T03:11:54.539Z,0.00
2023-05-12T03:12:54.520Z,0.00
2023-05-12T03:13:54.499Z,0.00
2023-05-12T03:14:54.489Z,0.00
2023-05-12T03:15:54.547Z,0.00
2023-05-12T03:16:54.600Z,0.00
2023-05-12T03:17:54.511Z,0.00
2023-05-12T03:18:54.519Z,0.00
2023-05-12T03:19:54.450Z,0.00
2023-05-12T03:20:54.487Z,0.00
2023-05-12T03:21:54.471Z,0.00
2023-05-12T03:22:54.467Z,0.00
2023-05-12T03:23:54.405Z,0.00
2023-05-12T03:24:54.388Z,0.00
2023-05-12T03:25:54.403Z,0.00
2023-05-12T03:26:54.365Z,0.00
2023-05-12T03:27:54.350Z,0.00
2023-05-12T03:28:54.360Z,0.00
2023-05-12T03:29:54.332Z,0.00
2023-05-12T03:30:54.342Z,0.00
2023-05-12T03:31:54.356Z,0.00
2023-05-12T03:32:54.339Z,0.00
2023-05-12T03:33:54.287Z,0.00
2023-05-12T03:34:54.305Z,0.00
2023-05-12T03:35:54.263Z,0.00
2023-05-12T03:36:54.257Z,0.00
2023-05-12T03:37:54.249Z,0.00
2023-05-12T03:38:54.233Z,0.00
2023-05-12T03:39:54.251Z,0.00
2023-05-12T03:40:54.220Z,0.00
2023-05-12T03:41:54.206Z,0.00
2023-05-12T03:42:54.219Z,0.00
2023-05-12T03:43:54.178Z,0.00
2023-05-12T03:44:54.292Z,0.00
2023-05-12T03:45:54.207Z,0.00
2023-05-12T03:46:54.288Z,0.00
2023-05-12T03:47:54.180Z,0.00
2023-05-12T03:48:54.159Z,0.00
2023-05-12T03:49:54.121Z,0.00
2023-05-12T03:50:54.118Z,0.00
2023-05-12T03:51:54.092Z,0.00
2023-05-12T03:52:54.114Z,0.00
2023-05-12T03:53:54.101Z,0.00
2023-05-12T03:54:54.071Z,0.00
2023-05-12T03:55:54.081Z,0.00
2023-05-12T03:56:54.057Z,5.62
2023-05-12T03:57:54.060Z,5.62
2023-05-12T03:58:54.048Z,5.62
2023-05-12T03:59:54.019Z,5.62
2023-05-12T04:00:54.023Z,5.62
2023-05-12T04:01:54.022Z,5.62
2023-05-12T04:02:54.114Z,5.62
2023-05-12T04:03:54.090Z,5.62
2023-05-12T04:04:53.965Z,5.62
2023-05-12T04:05:53.954Z,11.25
2023-05-12T04:06:54.187Z,11.25
2023-05-12T04:07:54.005Z,11.25
2023-05-12T04:08:53.936Z,11.25
2023-05-12T04:09:53.925Z,11.25
2023-05-12T04:10:53.909Z,11.25
2023-05-12T04:11:53.912Z,11.25
2023-05-12T04:12:53.902Z,11.25
2023-05-12T04:13:53.870Z,11.25
2023-05-12T04:14:53.890Z,16.88
2023-05-12T04:15:53.848Z,16.88
2023-05-12T04:16:54.000Z,16.88
2023-05-12T04:17:53.868Z,16.88
2023-05-12T04:18:53.918Z,16.88
2023-05-12T04:19:53.821Z,16.88
2023-05-12T04:20:53.840Z,16.88
2023-05-12T04:21:53.809Z,16.88
2023-05-12T04:22:53.789Z,16.88
2023-05-12T04:23:53.790Z,16.88
2023-05-12T04:24:53.837Z,16.88
2023-05-12T04:25:53.779Z,16.88
2023-05-12T04:26:53.799Z,16.88
2023-05-12T04:27:53.753Z,16.88
2023-05-12T04:28:53.727Z,22.50
2023-05-12T04:29:53.701Z,22.50
2023-05-12T04:30:53.716Z,22.50
2023-05-12T04:31:53.714Z,22.50
2023-05-12T04:32:53.743Z,22.50
2023-05-12T04:33:53.667Z,22.50
2023-05-12T04:34:53.658Z,28.12
2023-05-12T04:35:53.662Z,28.12
2023-05-12T04:36:53.776Z,28.12
2023-05-12T04:37:53.619Z,28.12
2023-05-12T04:38:53.651Z,28.12
2023-05-12T04:39:53.632Z,28.12
2023-05-12T04:40:53.780Z,33.75
2023-05-12T04:41:53.588Z,33.75
2023-05-12T04:42:53.582Z,33.75
2023-05-12T04:44:53.610Z,33.75
2023-05-12T04:45:53.660Z,33.75
2023-05-12T04:46:53.599Z,33.75
2023-05-12T04:47:53.582Z,39.38
2023-05-12T04:48:53.512Z,39.38
2023-05-12T04:49:53.520Z,39.38
2023-05-12T04:50:53.501Z,39.38
2023-05-12T04:51:53.479Z,39.38
2023-05-12T04:52:53.468Z,39.38
2023-05-12T04:53:53.452Z,39.38
2023-05-12T04:54:53.488Z,39.38
2023-05-12T04:55:53.460Z,39.38
2023-05-12T04:56:53.465Z,39.38
2023-05-12T04:57:53.426Z,39.38
2023-05-12T04:58:53.436Z,39.38
2023-05-12T04:59:53.426Z,39.38
2023-05-12T05:00:53.379Z,39.38
2023-05-12T05:01:53.412Z,39.38
2023-05-12T05:02:53.428Z,45.00
2023-05-12T05:03:53.452Z,45.00
2023-05-12T05:04:53.342Z,45.00
2023-05-12T05:05:53.328Z,45.00
2023-05-12T05:06:53.318Z,45.00
2023-05-12T05:07:53.310Z,45.00
2023-05-12T05:08:53.322Z,45.00
2023-05-12T05:09:53.295Z,45.00
2023-05-12T05:10:53.305Z,45.00
2023-05-12T05:11:53.288Z,45.00
2023-05-12T05:12:53.272Z,50.62
2023-05-12T05:13:53.276Z,50.62
2023-05-12T05:14:53.247Z,50.62
2023-05-12T05:15:53.334Z,50.62
2023-05-12T05:16:53.211Z,50.62
2023-05-12T05:17:53.339Z,56.25
2023-05-12T05:18:53.242Z,56.25
2023-05-12T05:19:58.325Z,56.25
2023-05-12T05:21:53.163Z,56.25
2023-05-12T05:22:53.175Z,56.25
2023-05-12T05:23:53.179Z,56.25
2023-05-12T05:24:53.125Z,56.25
2023-05-12T05:25:53.120Z,56.25
2023-05-12T05:26:53.130Z,56.25
2023-05-12T05:27:53.129Z,56.25
2023-05-12T05:28:53.102Z,61.88
2023-05-12T05:29:53.080Z,61.88
2023-05-12T05:30:53.068Z,61.88
2023-05-12T05:31:53.251Z,61.88
2023-05-12T05:32:53.204Z,61.88
2023-05-12T05:33:53.058Z,67.50
2023-05-12T05:34:53.024Z,61.88
2023-05-12T05:35:53.041Z,61.88
2023-05-12T05:36:53.030Z,61.88
2023-05-12T05:37:52.998Z,67.50
2023-05-12T05:38:52.977Z,67.50
2023-05-12T05:39:52.976Z,67.50
2023-05-12T05:40:54.498Z,67.50
2023-05-12T05:41:52.986Z,67.50
2023-05-12T05:42:52.942Z,56.25
2023-05-12T05:43:52.928Z,50.62
2023-05-12T05:44:52.917Z,50.62
2023-05-12T05:45:52.941Z,45.00
2023-05-12T05:46:52.966Z,33.75
2023-05-12T05:47:52.930Z,33.75
2023-05-12T05:48:52.886Z,39.38
2023-05-12T05:49:52.891Z,39.38
2023-05-12T05:50:52.877Z,45.00
2023-05-12T05:51:52.849Z,50.62
2023-05-12T05:52:52.835Z,50.62
2023-05-12T05:53:52.852Z,50.62
2023-05-12T05:54:52.812Z,56.25
2023-05-12T05:55:52.837Z,56.25
2023-05-12T05:56:52.786Z,56.25
2023-05-12T05:57:52.785Z,61.88
2023-05-12T05:58:52.773Z,73.12
2023-05-12T05:59:52.781Z,67.50
2023-05-12T06:00:52.783Z,67.50
2023-05-12T06:01:52.774Z,67.50
2023-05-12T06:02:52.930Z,73.12
2023-05-12T06:03:52.824Z,84.38
2023-05-12T06:04:52.722Z,95.62
2023-05-12T06:05:52.731Z,90.00
2023-05-12T06:06:52.685Z,78.75
2023-05-12T06:07:52.679Z,67.50
2023-05-12T06:08:52.676Z,67.50
2023-05-12T06:09:52.681Z,73.12
2023-05-12T06:10:52.649Z,78.75
2023-05-12T06:11:52.637Z,84.38
2023-05-12T06:12:52.622Z,95.62
2023-05-12T06:13:52.640Z,106.88
2023-05-12T06:14:52.632Z,112.50
2023-05-12T06:15:52.595Z,112.50
2023-05-12T06:16:52.642Z,112.50
2023-05-12T06:17:52.722Z,118.12
2023-05-12T06:18:52.602Z,123.75
2023-05-12T06:19:52.585Z,129.38
2023-05-12T06:20:52.539Z,129.38
2023-05-12T06:21:52.561Z,140.62
2023-05-12T06:22:52.532Z,146.25
2023-05-12T06:23:52.550Z,146.25
2023-05-12T06:24:52.521Z,157.50
2023-05-12T06:25:52.493Z,168.75
2023-05-12T06:26:52.479Z,168.75
2023-05-12T06:27:52.482Z,163.12
2023-05-12T06:28:52.486Z,157.50
2023-05-12T06:29:52.462Z,163.12
2023-05-12T06:30:52.434Z,163.12
2023-05-12T06:31:52.484Z,168.75
2023-05-12T06:32:52.453Z,168.75
2023-05-12T06:33:52.439Z,174.38
2023-05-12T06:34:52.404Z,180.00
2023-05-12T06:35:52.399Z,185.62
2023-05-12T06:36:54.429Z,196.88
2023-05-12T06:37:52.404Z,208.12
2023-05-12T06:38:52.360Z,208.12
2023-05-12T06:39:52.360Z,202.50
2023-05-12T06:40:52.350Z,202.50
2023-05-12T06:41:52.372Z,196.88
2023-05-12T06:42:52.338Z,185.62
2023-05-12T06:43:52.309Z,185.62
2023-05-12T06:44:52.309Z,185.62
2023-05-12T06:45:52.330Z,185.62
2023-05-12T06:46:52.320Z,191.25
2023-05-12T06:47:52.380Z,213.75
2023-05-12T06:48:52.261Z,213.75
2023-05-12T06:49:52.253Z,208.12
2023-05-12T06:50:52.234Z,208.12
2023-05-12T06:51:52.250Z,225.00
2023-05-12T06:52:52.223Z,230.62
2023-05-12T06:53:52.212Z,241.88
2023-05-12T06:54:52.201Z,292.50
2023-05-12T06:55:52.192Z,309.38
2023-05-12T06:56:52.207Z,331.88
2023-05-12T06:57:52.172Z,635.62
2023-05-12T06:58:52.150Z,461.25
2023-05-12T06:59:52.152Z,376.88
2023-05-12T07:00:52.159Z,382.50
2023-05-12T07:01:52.289Z,421.88
2023-05-12T07:02:52.166Z,433.12
2023-05-12T07:03:52.252Z,416.25
2023-05-12T07:04:52.098Z,208.12
2023-05-12T07:05:52.153Z,337.50
2023-05-12T07:06:52.073Z,303.75
2023-05-12T07:07:52.071Z,230.62
2023-05-12T07:08:52.047Z,264.38
2023-05-12T07:09:52.057Z,331.88
2023-05-12T07:10:52.049Z,427.50
2023-05-12T07:11:52.019Z,247.50
2023-05-12T07:12:52.003Z,241.88
2023-05-12T07:13:52.002Z,298.12
2023-05-12T07:14:52.021Z,247.50
2023-05-12T07:15:52.007Z,236.25
2023-05-12T07:16:51.959Z,241.88
2023-05-12T07:17:52.056Z,331.88
2023-05-12T07:18:51.973Z,236.25
2023-05-12T07:19:51.959Z,241.88
2023-05-12T07:20:51.924Z,286.88
2023-05-12T07:21:51.921Z,247.50
2023-05-12T07:22:51.901Z,281.25
2023-05-12T07:23:51.911Z,444.38
2023-05-12T07:24:51.934Z,371.25
2023-05-12T07:25:51.875Z,315.00
2023-05-12T07:26:51.892Z,360.00
2023-05-12T07:27:51.869Z,517.50
2023-05-12T07:28:51.870Z,590.62
2023-05-12T07:29:51.838Z,888.75
2023-05-12T07:30:51.866Z,939.38
2023-05-12T07:31:51.879Z,826.88
2023-05-12T07:32:51.844Z,911.25
2023-05-12T07:33:51.817Z,1226.25
2023-05-12T07:34:51.780Z,787.50
2023-05-12T07:35:51.779Z,1850.62
2023-05-12T07:36:51.761Z,866.25
2023-05-12T07:37:51.752Z,1164.38
2023-05-12T07:38:51.761Z,2323.12
2023-05-12T07:39:51.732Z,1333.12
2023-05-12T07:40:51.728Z,1237.50
2023-05-12T07:41:51.713Z,2120.62
2023-05-12T07:42:51.711Z,2311.88
2023-05-12T07:43:51.712Z,1569.38
2023-05-12T07:44:51.682Z,1473.75
2023-05-12T07:45:51.678Z,1473.75
2023-05-12T07:46:51.686Z,646.88
2023-05-12T07:47:51.724Z,393.75
2023-05-12T07:48:51.640Z,348.75
2023-05-12T07:49:51.636Z,354.38
2023-05-12T07:50:51.624Z,348.75
2023-05-12T07:51:51.638Z,365.62
2023-05-12T07:52:51.635Z,309.38
2023-05-12T07:53:51.600Z,331.88
2023-05-12T07:54:51.574Z,281.25
2023-05-12T07:55:51.562Z,270.00
2023-05-12T07:56:51.590Z,320.62
2023-05-12T07:57:51.548Z,298.12
2023-05-12T07:58:51.537Z,298.12
2023-05-12T07:59:51.563Z,298.12
2023-05-12T08:00:51.510Z,292.50
2023-05-12T08:01:51.612Z,264.38
2023-05-12T08:02:51.784Z,253.12
2023-05-12T08:03:51.639Z,241.88
2023-05-12T08:04:51.495Z,247.50
2023-05-12T08:05:51.496Z,253.12
2023-05-12T08:06:51.470Z,241.88
2023-05-12T08:07:51.443Z,253.12
2023-05-12T08:08:51.432Z,258.75
2023-05-12T08:09:51.419Z,275.62
2023-05-12T08:10:51.437Z,286.88
2023-05-12T08:11:51.890Z,281.25
2023-05-12T08:12:51.383Z,281.25
2023-05-12T08:13:51.374Z,281.25
2023-05-12T08:14:51.364Z,286.88
2023-05-12T08:15:51.381Z,286.88
2023-05-12T08:16:51.416Z,286.88
2023-05-12T08:17:51.364Z,275.62
2023-05-12T08:18:51.358Z,286.88
2023-05-12T08:19:51.311Z,270.00
2023-05-12T08:20:51.332Z,275.62
2023-05-12T08:21:51.285Z,264.38
2023-05-12T08:22:51.313Z,253.12
2023-05-12T08:23:51.269Z,241.88
2023-05-12T08:24:51.286Z,241.88
2023-05-12T08:25:51.277Z,247.50
2023-05-12T08:26:51.247Z,247.50
2023-05-12T08:27:51.227Z,253.12
2023-05-12T08:28:51.218Z,258.75
2023-05-12T08:29:51.243Z,253.12
2023-05-12T08:30:51.219Z,253.12
2023-05-12T08:31:51.203Z,230.62
2023-05-12T08:32:51.204Z,208.12
2023-05-12T08:34:02.648Z,185.62
2023-05-12T08:34:51.172Z,174.38
2023-05-12T08:35:51.151Z,168.75
2023-05-12T08:36:51.135Z,168.75
2023-05-12T08:37:51.137Z,174.38
2023-05-12T08:38:51.139Z,180.00
2023-05-12T08:39:51.137Z,180.00
2023-05-12T08:40:51.092Z,174.38
2023-05-12T08:41:51.123Z,174.38
2023-05-12T08:42:51.073Z,168.75
2023-05-12T08:43:51.094Z,174.38
2023-05-12T08:44:51.054Z,180.00
2023-05-12T08:45:51.049Z,180.00
2023-05-12T08:46:51.086Z,180.00
2023-05-12T08:47:51.082Z,185.62
2023-05-12T08:48:51.037Z,191.25
2023-05-12T08:49:52.460Z,191.25
2023-05-12T08:50:50.990Z,191.25
2023-05-12T08:51:57.922Z,185.62
2023-05-12T08:52:51.006Z,180.00
2023-05-12T08:53:50.975Z,174.38
2023-05-12T08:54:55.826Z,185.62
2023-05-12T08:57:08.106Z,191.25
2023-05-12T08:57:14.281Z,196.88
2023-05-12T08:57:50.946Z,191.25
2023-05-12T08:58:50.910Z,191.25
2023-05-12T08:59:50.909Z,191.25
2023-05-12T09:00:50.941Z,185.62
2023-05-12T09:01:51.035Z,180.00
2023-05-12T09:02:54.332Z,168.75
2023-05-12T09:03:50.903Z,163.12
2023-05-12T09:04:50.953Z,157.50
2023-05-12T09:05:50.847Z,151.88
2023-05-12T09:06:51.226Z,146.25
2023-05-12T09:07:50.861Z,140.62
2023-05-12T09:08:50.829Z,140.62
2023-05-12T09:09:50.820Z,140.62
2023-05-12T09:10:50.787Z,135.00
2023-05-12T09:11:50.829Z,135.00
2023-05-12T09:12:50.861Z,135.00
2023-05-12T09:13:51.510Z,135.00
2023-05-12T09:14:50.744Z,140.62
2023-05-12T09:15:50.812Z,140.62
2023-05-12T09:16:50.799Z,140.62
2023-05-12T09:17:50.750Z,146.25
2023-05-12T09:18:50.733Z,146.25
2023-05-12T09:19:50.715Z,146.25
2023-05-12T09:20:50.701Z,151.88
2023-05-12T09:21:50.694Z,151.88
2023-05-12T09:22:50.662Z,157.50
2023-05-12T09:23:50.671Z,163.12
2023-05-12T09:24:50.673Z,163.12
2023-05-12T09:25:51.222Z,168.75
2023-05-12T09:26:50.626Z,168.75
2023-05-12T09:27:50.611Z,168.75
2023-05-12T09:28:50.604Z,174.38
2023-05-12T09:29:59.380Z,174.38
2023-05-12T09:30:50.607Z,180.00
2023-05-12T09:31:50.599Z,180.00
2023-05-12T09:32:50.619Z,185.62
2023-05-12T09:33:50.555Z,185.62
2023-05-12T09:34:50.570Z,185.62
2023-05-12T09:35:50.535Z,191.25
2023-05-12T09:36:50.526Z,191.25
2023-05-12T09:37:50.512Z,191.25
2023-05-12T09:38:50.509Z,185.62
2023-05-12T09:39:51.040Z,185.62
2023-05-12T09:40:50.502Z,180.00
2023-05-12T09:41:50.480Z,180.00
2023-05-12T09:42:50.465Z,174.38
2023-05-12T09:43:50.472Z,168.75
2023-05-12T09:44:50.463Z,163.12
2023-05-12T09:45:51.138Z,163.12
2023-05-12T09:46:50.520Z,163.12
2023-05-12T09:47:50.470Z,163.12
2023-05-12T09:48:50.434Z,157.50
2023-05-12T09:49:50.387Z,157.50
2023-05-12T09:50:50.437Z,157.50
2023-05-12T09:51:50.364Z,151.88
2023-05-12T09:52:50.373Z,151.88
2023-05-12T09:53:50.366Z,151.88
2023-05-12T09:54:50.335Z,151.88
2023-05-12T09:55:50.333Z,157.50
2023-05-12T09:56:50.325Z,157.50
2023-05-12T09:57:50.309Z,163.12
2023-05-12T09:58:50.323Z,168.75
2023-05-12T09:59:50.398Z,174.38
2023-05-12T10:01:12.745Z,180.00
2023-05-12T10:01:50.389Z,185.62
2023-05-12T10:02:50.303Z,191.25
2023-05-12T10:03:50.267Z,196.88
2023-05-12T10:04:50.277Z,202.50
2023-05-12T10:05:50.222Z,202.50
2023-05-12T10:06:50.206Z,208.12
2023-05-12T10:07:50.261Z,219.38
2023-05-12T10:08:50.196Z,219.38
2023-05-12T10:09:50.181Z,219.38
2023-05-12T10:10:50.188Z,219.38
2023-05-12T10:11:52.040Z,219.38
2023-05-12T10:12:50.173Z,225.00
2023-05-12T10:13:50.158Z,225.00
2023-05-12T10:14:50.137Z,225.00
2023-05-12T10:15:50.123Z,230.62
2023-05-12T10:16:50.216Z,230.62
2023-05-12T10:17:52.971Z,230.62
2023-05-12T10:18:50.192Z,236.25
2023-05-12T10:19:50.071Z,236.25
2023-05-12T10:20:50.167Z,230.62
2023-05-12T10:21:50.088Z,225.00
2023-05-12T10:22:50.083Z,230.62
2023-05-12T10:23:50.051Z,225.00
2023-05-12T10:24:50.035Z,225.00
2023-05-12T10:25:50.067Z,225.00
2023-05-12T10:26:50.043Z,225.00
2023-05-12T10:27:49.990Z,219.38
2023-05-12T10:28:50.009Z,225.00
2023-05-12T10:29:51.466Z,213.75
2023-05-12T10:30:49.989Z,213.75
2023-05-12T10:31:50.166Z,208.12
2023-05-12T10:32:50.015Z,208.12
2023-05-12T10:33:49.932Z,208.12
2023-05-12T10:34:49.935Z,208.12
2023-05-12T10:35:49.940Z,202.50
2023-05-12T10:36:49.948Z,196.88
2023-05-12T10:37:49.897Z,196.88
2023-05-12T10:38:49.884Z,196.88
2023-05-12T10:39:49.872Z,196.88
2023-05-12T10:40:49.904Z,196.88
2023-05-12T10:41:51.136Z,213.75
2023-05-12T10:42:49.840Z,202.50
2023-05-12T10:43:49.828Z,208.12
2023-05-12T10:44:49.847Z,196.88
2023-05-12T10:45:49.833Z,208.12
2023-05-12T10:46:49.923Z,202.50
2023-05-12T10:47:49.841Z,196.88
2023-05-12T10:48:49.803Z,196.88
2023-05-12T10:49:49.848Z,196.88
2023-05-12T10:50:49.779Z,196.88
2023-05-12T10:51:49.757Z,213.75
2023-05-12T10:52:49.742Z,208.12
2023-05-12T10:53:54.181Z,196.88
2023-05-12T10:54:49.752Z,213.75
2023-05-12T10:55:50.091Z,196.88
2023-05-12T10:56:50.001Z,191.25
2023-05-12T10:57:50.261Z,202.50
2023-05-12T10:58:49.908Z,185.62
2023-05-12T10:59:50.496Z,180.00
2023-05-12T11:00:50.431Z,180.00
2023-05-12T11:01:50.045Z,180.00
2023-05-12T11:02:50.298Z,185.62
2023-05-12T11:03:50.464Z,185.62
2023-05-12T11:04:50.406Z,196.88
2023-05-12T11:05:50.122Z,174.38
2023-05-12T11:06:50.197Z,163.12
2023-05-12T11:07:50.114Z,168.75
2023-05-12T11:08:50.671Z,174.38
2023-05-12T11:09:57.576Z,163.12
2023-05-12T11:10:49.592Z,163.12
2023-05-12T11:11:50.114Z,157.50
2023-05-12T11:12:49.560Z,163.12
2023-05-12T11:13:49.532Z,157.50
2023-05-12T11:14:49.505Z,168.75
2023-05-12T11:15:49.527Z,157.50
2023-05-12T11:16:49.516Z,168.75
2023-05-12T11:17:49.523Z,180.00
2023-05-12T11:18:49.571Z,174.38
2023-05-12T11:19:49.466Z,174.38
2023-05-12T11:20:49.448Z,174.38
2023-05-12T11:21:49.440Z,180.00
2023-05-12T11:22:49.445Z,180.00
2023-05-12T11:23:49.404Z,180.00
2023-05-12T11:24:49.408Z,174.38
2023-05-12T11:25:49.419Z,174.38
2023-05-12T11:26:49.410Z,180.00
2023-05-12T11:27:50.136Z,174.38
2023-05-12T11:28:49.362Z,180.00
2023-05-12T11:29:49.353Z,180.00
2023-05-12T11:30:49.365Z,180.00
2023-05-12T11:31:49.369Z,180.00
2023-05-12T11:32:49.368Z,180.00
2023-05-12T11:33:55.883Z,180.00
2023-05-12T11:34:49.315Z,180.00
2023-05-12T11:35:49.303Z,180.00
2023-05-12T11:36:49.295Z,180.00
2023-05-12T11:37:49.261Z,180.00
2023-05-12T11:38:49.256Z,180.00
2023-05-12T11:39:49.263Z,185.62
2023-05-12T11:40:49.263Z,163.12
2023-05-12T11:41:51.379Z,140.62
2023-05-12T11:42:49.213Z,140.62
2023-05-12T11:43:49.199Z,146.25
2023-05-12T11:44:49.294Z,140.62
2023-05-12T11:45:49.356Z,140.62
2023-05-12T11:46:49.173Z,140.62
2023-05-12T11:47:49.227Z,157.50
2023-05-12T11:48:49.153Z,135.00
2023-05-12T11:49:49.158Z,157.50
2023-05-12T11:50:49.153Z,185.62
2023-05-12T11:51:49.124Z,196.88
2023-05-12T11:52:49.119Z,174.38
2023-05-12T11:53:49.093Z,180.00
2023-05-12T11:54:49.118Z,185.62
2023-05-12T11:55:49.077Z,191.25
2023-05-12T11:56:49.077Z,196.88
2023-05-12T11:57:49.081Z,180.00
2023-05-12T11:58:49.233Z,185.62
2023-05-12T11:59:49.062Z,174.38
2023-05-12T12:00:49.028Z,185.62
2023-05-12T12:01:49.016Z,185.62
2023-05-12T12:02:49.058Z,180.00
2023-05-12T12:03:49.100Z,185.62
2023-05-12T12:04:49.133Z,185.62
2023-05-12T12:05:48.984Z,185.62
2023-05-12T12:06:49.074Z,185.62
2023-05-12T12:07:48.955Z,185.62
2023-05-12T12:08:48.974Z,185.62
2023-05-12T12:09:48.956Z,191.25
2023-05-12T12:10:48.948Z,185.62
2023-05-12T12:11:48.956Z,185.62
2023-05-12T12:12:48.915Z,191.25
2023-05-12T12:13:48.923Z,202.50
2023-05-12T12:14:49.656Z,213.75
2023-05-12T12:15:48.924Z,202.50
2023-05-12T12:16:48.908Z,196.88
2023-05-12T12:17:48.934Z,191.25
2023-05-12T12:18:48.961Z,196.88
2023-05-12T12:19:48.842Z,174.38
2023-05-12T12:20:48.842Z,191.25
2023-05-12T12:21:48.877Z,191.25
2023-05-12T12:22:48.879Z,185.62
2023-05-12T12:23:51.327Z,191.25
2023-05-12T12:24:48.803Z,208.12
2023-05-12T12:25:48.882Z,225.00
2023-05-12T12:26:48.777Z,213.75
2023-05-12T12:27:48.782Z,208.12
2023-05-12T12:28:48.759Z,196.88
2023-05-12T12:29:48.763Z,191.25
2023-05-12T12:30:48.762Z,78.75
2023-05-12T12:31:48.804Z,191.25
2023-05-12T12:32:48.830Z,191.25
2023-05-12T12:33:48.708Z,196.88
2023-05-12T12:34:48.721Z,196.88
2023-05-12T12:35:48.703Z,168.75
2023-05-12T12:36:48.713Z,196.88
2023-05-12T12:37:48.721Z,202.50
2023-05-12T12:38:48.690Z,208.12
2023-05-12T12:39:48.649Z,213.75
2023-05-12T12:40:48.674Z,219.38
2023-05-12T12:41:48.666Z,219.38
2023-05-12T12:42:48.630Z,219.38
2023-05-12T12:43:48.621Z,230.62
2023-05-12T12:44:48.617Z,230.62
2023-05-12T12:45:48.595Z,230.62
2023-05-12T12:46:48.642Z,230.62
2023-05-12T12:47:48.670Z,236.25
2023-05-12T12:48:48.589Z,241.88
2023-05-12T12:49:48.542Z,236.25